This is the latest recevied weather packets stored in our database for station/object KE8ZLU. If no packets are shown the sender has not sent any weather packets the latest 1 day(s).
| Time | Temp. | Humidity | Pressure | Rain* | Wind** | Luminosity | Snow |
|---|---|---|---|---|---|---|---|
| 1777989008 | 10.56° C | 73% | 1007.5 hPa | 0 mm | 2.24 m/s, 304° | 136 W/m² | - |
| 1777988704 | 10.56° C | 75% | 1007.6 hPa | 0 mm | 3.58 m/s, 302° | 68 W/m² | - |
| 1777988401 | 10.56° C | 75% | 1007.5 hPa | 0 mm | 3.58 m/s, 302° | 68 W/m² | - |
| 1777988099 | 10.56° C | 75% | 1007.6 hPa | 0 mm | 3.58 m/s, 302° | 68 W/m² | - |
| 1777987794 | 10.56° C | 73% | 1007.7 hPa | 0 mm | 3.13 m/s, 281° | 35 W/m² | - |
| 1777987491 | 11.11° C | 70% | 1007.3 hPa | 0 mm | 2.68 m/s, 268° | 188 W/m² | - |
| 1777987189 | 11.11° C | 70% | 1007.3 hPa | 0 mm | 2.68 m/s, 268° | 188 W/m² | - |
| 1777986885 | 11.11° C | 70% | 1007.2 hPa | 0 mm | 2.68 m/s, 268° | 188 W/m² | - |
| 1777986583 | 11.11° C | 70% | 1006.8 hPa | 0 mm | 2.68 m/s, 268° | 188 W/m² | - |
| 1777986281 | 11.11° C | 70% | 1006.4 hPa | 0 mm | 4.02 m/s, 274° | 177 W/m² | - |
| 1777985978 | 11.11° C | 71% | 1006.1 hPa | 0 mm | 4.92 m/s, 295° | 180 W/m² | - |
| 1777985676 | 11.11° C | 70% | 1006.4 hPa | 0 mm | 4.47 m/s, 308° | 76 W/m² | - |
| 1777985372 | 11.11° C | 70% | 1006.4 hPa | 0 mm | 4.47 m/s, 297° | 41 W/m² | - |
| 1777985069 | 11.11° C | 69% | 1006.3 hPa | 0 mm | 3.13 m/s, 285° | 34 W/m² | - |
| 1777984765 | 11.67° C | 67% | 1005.9 hPa | 0 mm | 4.02 m/s, 263° | 66 W/m² | - |
| 1777984462 | 11.67° C | 68% | 1005.2 hPa | 0 mm | 2.24 m/s, 310° | 67 W/m² | - |
| 1777984157 | 11.67° C | 66% | 1005.4 hPa | 0 mm | 2.68 m/s, 281° | 46 W/m² | - |
| 1777983855 | 11.67° C | 66% | 1005.5 hPa | 0 mm | 1.34 m/s, 299° | 44 W/m² | - |
| 1777983552 | 11.67° C | 67% | 1005.6 hPa | 0 mm | 1.79 m/s, 270° | 42 W/m² | - |
| 1777983249 | 12.22° C | 67% | 1005.7 hPa | 0 mm | 1.34 m/s, 282° | 61 W/m² | - |
| 1777982944 | 12.22° C | 66% | 1005.6 hPa | 0 mm | 1.79 m/s, 271° | 88 W/m² | - |
| 1777982641 | 11.67° C | 66% | 1005.9 hPa | 0 mm | 2.68 m/s, 267° | 113 W/m² | - |
| 1777982340 | 11.67° C | 67% | 1005.4 hPa | 0 mm | 1.34 m/s, 306° | 87 W/m² | - |
| 1777982037 | 11.67° C | 68% | 1005.5 hPa | 0 mm | 1.79 m/s, 315° | 55 W/m² | - |
| 1777981735 | 11.67° C | 68% | 1005.7 hPa | 0 mm | 2.68 m/s, 272° | 42 W/m² | - |
* Rain latest hour (hover to see other rain measurements)
** Current wind speed in m/s (hover to see current wind gust speed)